Izumo Princess — SXMB — position and weather

sailwx.info

Track history (hours):
 
Tides and Currents Weather Stations Pressure Air Temp Water Temp Dewpoint Dewpoint Depression Visibility Wind Speed Wind Dir Waves Ship Positions

Izumo Princess

Last reported at 2014-Jun-03 12:18 UTC. Time now 2014-Jul-23 07:26 UTC.
Position S 29°53' E 031°55'.
Warning: this ship's position is 49 days out of date.

Length 229 m; draft 14.1 m.

Type: Ship (hazmat cat C). MMSI: 240611000.

Date/timePositionNaut miles runAvg speedWind from/ knotsBaromVisibWave heightAir tempDewpointWater temp
2014-Jun-03 12:18S 29°53' E 031°55'810.6
2014-Jun-03 11:32S 29°54' E 031°46'1010.4
2014-Jun-03 10:33S 29°54' E 031°34'1211.8
2014-Jun-03 09:33S 29°54' E 031°21'7 6.8
2014-Jun-03 08:33S 29°53' E 031°13'1 0.6
2014-Jun-03 07:33S 29°53' E 031°12'1 1.1
2014-Jun-03 06:33S 29°54' E 031°12'1 0.6
2014-Jun-03 05:33S 29°55' E 031°12'0 0.4
2014-Jun-03 04:33S 29°55' E 031°12'2 2.3
2014-Jun-03 03:33S 29°58' E 031°13'6 6.3
2014-Jun-03 02:33S 30°04' E 031°12'  
Track history (hours):
 
Tides and Currents Weather Stations Pressure Air Temp Water Temp Dewpoint Dewpoint Depression Visibility Wind Speed Wind Dir Waves Ship Positions

Izumo Princess

Last reported at 2014-Jun-03 12:18 UTC. Time now 2014-Jul-23 07:26 UTC.
Position S 29°53' E 031°55'.
Warning: this ship's position is 49 days out of date.

Length 229 m; draft 14.1 m.

Type: Ship (hazmat cat C). MMSI: 240611000.

Date/timePositionNaut miles runAvg speedWind from/ knotsBaromVisibWave heightAir tempDewpointWater temp
2014-Jun-03 12:18S 29°53' E 031°55'810.6
2014-Jun-03 11:32S 29°54' E 031°46'1010.4
2014-Jun-03 10:33S 29°54' E 031°34'1211.8
2014-Jun-03 09:33S 29°54' E 031°21'7 6.8
2014-Jun-03 08:33S 29°53' E 031°13'1 0.6
2014-Jun-03 07:33S 29°53' E 031°12'1 1.1
2014-Jun-03 06:33S 29°54' E 031°12'1 0.6
2014-Jun-03 05:33S 29°55' E 031°12'0 0.4
2014-Jun-03 04:33S 29°55' E 031°12'2 2.3
2014-Jun-03 03:33S 29°58' E 031°13'6 6.3
2014-Jun-03 02:33S 30°04' E 031°12'  

Dump ship's entire track history